Time;durP1;ratioP1;P1;durP2;ratioP2;P2;SDS_P1;SDS_P2;PMS_P1;PMS_P2;Temp;Humidity;BMP_temperature;BMP_pressure;BME280_temperature;BME280_humidity;BME280_pressure;Samples;Min_cycle;Max_cycle;Signal;HPM_P1;HPM_P2
2024/04/10 00:01:40;;;;;;;4.80;1.90;;;9.40;73.50;;;;;;5262294;27;20579;-75
2024/04/10 00:04:06;;;;;;;3.90;2.20;;;9.40;73.50;;;;;;5237045;27;21011;-75
2024/04/10 00:06:32;;;;;;;4.80;1.97;;;9.40;73.50;;;;;;5243701;27;20281;-77
2024/04/10 00:08:57;;;;;;;2.50;1.57;;;9.40;73.50;;;;;;5247611;27;20239;-75
2024/04/10 00:11:25;;;;;;;4.80;2.20;;;9.40;73.50;;;;;;5242965;27;20266;-75
2024/04/10 00:13:50;;;;;;;2.50;1.70;;;9.40;73.70;;;;;;5235229;27;20247;-75
2024/04/10 00:16:16;;;;;;;5.60;2.17;;;9.40;73.60;;;;;;5246046;27;21094;-75
2024/04/10 00:18:43;;;;;;;2.90;1.60;;;9.40;73.50;;;;;;5242054;27;20310;-75
2024/04/10 00:21:09;;;;;;;6.53;1.90;;;9.40;73.50;;;;;;5239679;27;20490;-74
2024/04/10 00:23:34;;;;;;;4.97;1.77;;;9.40;73.50;;;;;;5240593;27;20808;-73
2024/04/10 00:26:02;;;;;;;5.50;1.80;;;9.40;73.30;;;;;;5242237;27;21037;-74
2024/04/10 00:28:29;;;;;;;3.53;1.50;;;9.40;73.60;;;;;;5241460;27;20763;-76
2024/04/10 00:30:55;;;;;;;4.37;2.00;;;9.40;73.60;;;;;;5239656;27;20584;-74
2024/04/10 00:33:21;;;;;;;4.03;1.80;;;9.40;73.70;;;;;;5238802;27;20478;-74
2024/04/10 00:36:02;;;;;;;3.30;1.90;;;9.30;73.70;;;;;;5238934;27;20242;-76
2024/04/10 00:38:29;;;;;;;8.13;2.70;;;9.40;73.70;;;;;;5240082;27;20730;-76
2024/04/10 00:40:55;;;;;;;2.00;1.43;;;9.40;73.60;;;;;;5243920;27;20538;-75
2024/04/10 00:43:21;;;;;;;5.07;2.30;;;9.40;73.60;;;;;;5249329;27;20995;-74
2024/04/10 00:45:57;;;;;;;4.93;2.57;;;9.30;73.60;;;;;;5247164;27;20471;-77
2024/04/10 00:48:25;;;;;;;4.37;1.90;;;9.20;73.70;;;;;;5241740;27;20549;-76
2024/04/10 00:50:52;;;;;;;5.13;1.50;;;9.20;74.00;;;;;;5234886;27;21408;-74
2024/04/10 00:53:18;;;;;;;6.43;2.10;;;9.30;73.60;;;;;;5241277;27;20466;-75
2024/04/10 00:55:44;;;;;;;4.07;1.70;;;9.20;73.60;;;;;;5242459;27;20530;-75
2024/04/10 00:58:11;;;;;;;3.20;1.43;;;9.30;73.60;;;;;;5242955;27;20470;-76
2024/04/10 01:00:37;;;;;;;3.73;1.47;;;9.30;73.30;;;;;;5243758;27;20820;-75
2024/04/10 01:03:03;;;;;;;4.20;2.20;;;9.20;73.50;;;;;;5244862;27;20502;-76
2024/04/10 01:05:28;;;;;;;7.30;1.40;;;9.20;73.70;;;;;;5262505;27;20544;-75
2024/04/10 01:07:54;;;;;;;6.60;1.63;;;9.20;73.90;;;;;;5251457;27;20236;-75
2024/04/10 01:10:19;;;;;;;2.50;1.57;;;9.20;73.90;;;;;;5253988;27;20255;-76
2024/04/10 01:12:45;;;;;;;2.50;1.43;;;9.10;74.00;;;;;;5251791;27;20618;-76
2024/04/10 01:15:11;;;;;;;6.47;1.90;;;9.10;74.20;;;;;;5228913;27;20283;-75
2024/04/10 01:17:38;;;;;;;4.00;1.60;;;9.00;74.30;;;;;;5234513;27;20250;-74
2024/04/10 01:20:07;;;;;;;2.17;1.87;;;9.00;74.60;;;;;;5240884;27;20953;-74
2024/04/10 01:22:34;;;;;;;2.80;1.57;;;8.90;74.80;;;;;;5239112;27;20471;-74
2024/04/10 01:24:59;;;;;;;5.90;2.20;;;9.00;74.60;;;;;;5240087;27;20504;-76
2024/04/10 01:27:25;;;;;;;2.37;1.67;;;8.90;74.80;;;;;;5238928;27;20560;-76
2024/04/10 01:29:51;;;;;;;7.33;2.20;;;8.90;74.80;;;;;;5241443;27;20911;-76
2024/04/10 01:32:16;;;;;;;4.20;2.47;;;8.90;74.80;;;;;;5233694;27;20250;-75
2024/04/10 01:34:43;;;;;;;2.43;1.70;;;8.90;75.20;;;;;;5233092;27;20247;-74
2024/04/10 01:37:09;;;;;;;3.80;1.63;;;8.90;75.20;;;;;;5241581;27;20242;-74
2024/04/10 01:39:34;;;;;;;6.30;2.00;;;8.90;75.40;;;;;;5245919;27;20458;-75
2024/04/10 01:42:00;;;;;;;3.00;1.90;;;8.90;75.50;;;;;;5236467;27;20665;-74
2024/04/10 01:44:25;;;;;;;4.87;1.73;;;8.80;75.70;;;;;;5249618;27;20235;-73
2024/04/10 01:46:52;;;;;;;3.73;1.90;;;8.80;76.10;;;;;;5246894;27;20241;-74
2024/04/10 01:49:18;;;;;;;4.93;1.87;;;8.80;76.20;;;;;;5248692;27;20238;-73
2024/04/10 01:51:43;;;;;;;4.73;2.77;;;8.70;76.40;;;;;;5242010;27;20558;-72
2024/04/10 01:54:09;;;;;;;2.23;1.90;;;8.60;76.80;;;;;;5239706;27;20888;-75
2024/04/10 01:56:34;;;;;;;4.33;1.97;;;8.60;77.00;;;;;;5240256;27;20286;-76
2024/04/10 01:59:00;;;;;;;3.37;1.80;;;8.60;77.30;;;;;;5241025;27;20322;-75
2024/04/10 02:01:26;;;;;;;2.60;1.70;;;8.50;77.30;;;;;;5237699;27;20360;-75
2024/04/10 02:03:51;;;;;;;4.70;2.00;;;8.60;77.40;;;;;;5238919;27;20798;-74
2024/04/10 02:06:17;;;;;;;4.13;1.90;;;8.50;77.40;;;;;;5241660;27;20290;-76
2024/04/10 02:08:42;;;;;;;3.73;2.10;;;8.50;77.40;;;;;;5240625;27;20281;-74
2024/04/10 02:11:26;;;;;;;3.93;1.87;;;8.50;77.60;;;;;;5239675;27;20266;-74
2024/04/10 02:13:52;;;;;;;4.13;2.03;;;8.50;77.60;;;;;;5239245;27;20794;-74
2024/04/10 02:16:19;;;;;;;4.60;1.77;;;8.50;77.70;;;;;;5234734;27;20483;-74
2024/04/10 02:18:44;;;;;;;3.00;1.67;;;8.40;77.80;;;;;;5241053;27;20666;-74
2024/04/10 02:21:10;;;;;;;2.73;1.70;;;8.40;78.10;;;;;;5238596;27;20608;-74
2024/04/10 02:23:35;;;;;;;3.67;2.13;;;8.30;78.10;;;;;;5237277;27;20720;-75
2024/04/10 02:26:09;;;;;;;6.40;2.00;;;8.30;78.30;;;;;;5239138;27;20306;-74
2024/04/10 02:28:35;;;;;;;4.30;2.20;;;8.30;78.40;;;;;;5237807;27;20258;-75
2024/04/10 02:31:00;;;;;;;4.03;2.27;;;8.30;78.40;;;;;;5235421;27;20584;-75
2024/04/10 02:33:26;;;;;;;3.30;1.83;;;8.30;78.40;;;;;;5235355;27;20709;-75
2024/04/10 02:35:51;;;;;;;3.30;1.67;;;8.30;78.30;;;;;;5239160;27;20293;-75
2024/04/10 02:38:17;;;;;;;3.83;1.83;;;8.30;78.30;;;;;;5239727;27;20242;-75
2024/04/10 02:40:43;;;;;;;7.80;2.20;;;8.30;78.40;;;;;;5239568;27;20243;-74
2024/04/10 02:43:08;;;;;;;2.23;1.80;;;8.30;78.10;;;;;;5237327;27;20289;-74
2024/04/10 02:45:34;;;;;;;5.07;2.07;;;8.30;78.40;;;;;;5265971;27;20325;-76
2024/04/10 02:48:00;;;;;;;3.53;2.07;;;8.30;78.00;;;;;;5241161;27;20942;-76
2024/04/10 02:50:26;;;;;;;5.93;1.93;;;8.20;78.30;;;;;;5238392;27;20269;-75
2024/04/10 02:52:51;;;;;;;4.27;2.10;;;8.20;78.40;;;;;;5239979;27;20485;-74
2024/04/10 02:55:17;;;;;;;3.63;1.80;;;8.20;78.40;;;;;;5245707;27;20707;-76
2024/04/10 02:57:42;;;;;;;6.30;2.03;;;8.10;78.60;;;;;;5233028;27;20326;-75
2024/04/10 03:00:10;;;;;;;4.20;2.00;;;8.10;78.60;;;;;;5242184;27;20314;-76
2024/04/10 03:02:37;;;;;;;3.50;1.90;;;8.10;78.70;;;;;;5265586;27;20649;-76
2024/04/10 03:05:04;;;;;;;4.83;2.10;;;8.10;78.70;;;;;;5240089;27;21250;-75
2024/04/10 03:07:30;;;;;;;4.93;1.97;;;8.10;78.60;;;;;;5239371;27;20478;-75
2024/04/10 03:09:56;;;;;;;2.23;1.73;;;8.10;78.40;;;;;;5241880;27;20474;-75
2024/04/10 03:12:21;;;;;;;2.87;1.70;;;8.10;78.70;;;;;;5240450;27;20258;-75
2024/04/10 03:14:48;;;;;;;2.50;1.73;;;8.00;78.70;;;;;;5237416;27;20404;-74
2024/04/10 03:17:16;;;;;;;4.30;1.97;;;7.90;78.90;;;;;;5268903;27;20345;-75
2024/04/10 03:19:41;;;;;;;4.67;1.93;;;7.90;79.20;;;;;;5243313;27;20537;-74
2024/04/10 03:22:08;;;;;;;3.10;1.70;;;7.90;79.20;;;;;;5240362;27;20813;-74
2024/04/10 03:24:34;;;;;;;3.03;1.63;;;7.90;78.90;;;;;;5229748;27;20242;-75
2024/04/10 03:26:59;;;;;;;9.93;2.27;;;7.90;79.00;;;;;;5235892;27;20491;-74
2024/04/10 03:29:26;;;;;;;2.77;1.90;;;7.90;78.90;;;;;;5240375;27;20238;-75
2024/04/10 03:31:55;;;;;;;7.03;2.40;;;7.90;79.00;;;;;;5231325;27;20639;-74
2024/04/10 03:34:20;;;;;;;3.53;2.00;;;7.80;78.90;;;;;;5231622;27;20530;-75
2024/04/10 03:36:46;;;;;;;9.30;2.43;;;7.80;78.90;;;;;;5240895;27;20466;-75
2024/04/10 03:39:12;;;;;;;7.73;1.90;;;7.70;79.00;;;;;;5242488;27;20357;-76
2024/04/10 03:41:37;;;;;;;10.80;1.70;;;7.70;79.20;;;;;;5239761;27;20263;-74
2024/04/10 03:44:05;;;;;;;5.73;2.20;;;7.70;79.50;;;;;;5237380;27;20365;-76
2024/04/10 03:46:34;;;;;;;3.83;1.93;;;7.60;79.60;;;;;;5243298;27;20485;-74
2024/04/10 03:48:59;;;;;;;3.80;1.93;;;7.60;79.70;;;;;;5242652;27;20474;-75
2024/04/10 03:51:25;;;;;;;4.87;2.20;;;7.70;79.70;;;;;;5235549;27;20903;-76
2024/04/10 03:53:51;;;;;;;5.10;1.87;;;7.70;79.70;;;;;;5229455;27;20299;-77
2024/04/10 03:56:16;;;;;;;6.30;2.03;;;7.70;79.70;;;;;;5242099;27;20334;-75
2024/04/10 03:58:42;;;;;;;4.83;2.10;;;7.60;79.70;;;;;;5242365;27;20732;-74
2024/04/10 04:01:07;;;;;;;7.63;2.30;;;7.60;79.90;;;;;;5235631;27;20297;-76
2024/04/10 04:03:34;;;;;;;3.63;1.80;;;7.60;79.90;;;;;;5233161;27;20281;-74
2024/04/10 04:06:00;;;;;;;5.57;2.17;;;7.60;79.90;;;;;;5240972;27;20258;-74
2024/04/10 04:08:27;;;;;;;5.20;2.20;;;7.50;79.70;;;;;;5242607;27;20589;-76
2024/04/10 04:10:56;;;;;;;5.20;1.97;;;7.50;79.90;;;;;;5230255;27;20532;-75
2024/04/10 04:13:21;;;;;;;5.43;2.00;;;7.50;79.90;;;;;;5237783;27;20522;-75
2024/04/10 04:15:48;;;;;;;4.70;2.23;;;7.60;79.70;;;;;;5231132;27;20522;-74
2024/04/10 04:18:14;;;;;;;5.00;2.00;;;7.60;79.30;;;;;;5239339;27;20247;-75
2024/04/10 04:20:40;;;;;;;4.10;2.10;;;7.50;79.50;;;;;;5241509;27;20529;-76
2024/04/10 04:23:05;;;;;;;2.77;2.17;;;7.50;79.60;;;;;;5231350;27;20486;-75
2024/04/10 04:25:33;;;;;;;3.93;1.80;;;7.50;79.70;;;;;;5239479;27;20467;-74
2024/04/10 04:27:59;;;;;;;5.63;2.07;;;7.60;79.50;;;;;;5243405;27;20342;-75
2024/04/10 04:30:25;;;;;;;4.70;2.13;;;7.60;79.30;;;;;;5246317;27;20565;-76
2024/04/10 04:32:50;;;;;;;3.93;1.87;;;7.60;79.20;;;;;;5231037;27;20587;-75
2024/04/10 04:35:16;;;;;;;7.60;2.20;;;7.50;79.50;;;;;;5232827;27;20250;-77
2024/04/10 04:37:45;;;;;;;2.93;1.60;;;7.50;79.30;;;;;;5242662;27;20744;-76
2024/04/10 04:40:11;;;;;;;3.07;1.90;;;7.40;79.50;;;;;;5242992;27;20285;-76
2024/04/10 04:42:37;;;;;;;4.63;2.20;;;7.40;79.70;;;;;;5237974;27;20557;-74
2024/04/10 04:45:03;;;;;;;5.20;2.00;;;7.40;79.50;;;;;;5233996;27;20258;-76
2024/04/10 04:47:28;;;;;;;5.10;2.17;;;7.30;79.60;;;;;;5238709;27;20478;-76
2024/04/10 04:49:54;;;;;;;6.23;2.30;;;7.30;80.00;;;;;;5236535;27;20595;-75
2024/04/10 04:52:20;;;;;;;6.50;2.47;;;7.40;79.50;;;;;;5231664;27;20289;-74
2024/04/10 04:54:45;;;;;;;5.70;2.40;;;7.40;79.50;;;;;;5239080;27;20247;-76
2024/04/10 04:57:12;;;;;;;7.03;1.97;;;7.30;79.50;;;;;;5244117;27;20246;-76
2024/04/10 04:59:39;;;;;;;8.37;2.50;;;7.40;79.60;;;;;;5246674;27;20247;-74
2024/04/10 05:02:06;;;;;;;3.30;2.33;;;7.30;79.50;;;;;;5237082;27;20474;-75
2024/04/10 05:07:15;;;;;;;5.83;2.50;;;7.40;79.70;;;;;;5239011;27;20544;-76
2024/04/10 05:09:48;;;;;;;7.60;2.63;;;7.50;79.30;;;;;;5242069;27;20474;-75
2024/04/10 05:12:13;;;;;;;4.63;2.13;;;7.60;79.00;;;;;;5232164;27;20251;-73
2024/04/10 05:14:39;;;;;;;3.13;1.90;;;7.70;78.60;;;;;;5267027;27;20490;-75
2024/04/10 05:17:05;;;;;;;6.63;2.20;;;7.70;78.40;;;;;;5239871;27;20841;-74
2024/04/10 05:19:31;;;;;;;4.87;2.40;;;7.80;77.80;;;;;;5239411;27;20326;-75
2024/04/10 05:21:57;;;;;;;5.80;2.27;;;7.90;77.10;;;;;;5235021;27;20492;-76
2024/04/10 05:24:23;;;;;;;8.33;2.93;;;7.80;76.80;;;;;;5239163;27;20239;-76
2024/04/10 05:26:49;;;;;;;5.70;2.00;;;7.90;77.10;;;;;;5241050;27;20246;-75
2024/04/10 05:29:15;;;;;;;9.77;2.90;;;7.90;76.10;;;;;;5242816;27;20527;-74
2024/04/10 05:31:41;;;;;;;5.47;2.43;;;7.90;76.40;;;;;;5237834;27;21101;-76
2024/04/10 05:34:07;;;;;;;11.77;2.87;;;7.90;76.40;;;;;;5221928;27;20286;-74
2024/04/10 05:36:33;;;;;;;15.47;3.73;;;8.00;76.10;;;;;;5241049;27;20836;-75
2024/04/10 05:39:00;;;;;;;6.00;2.27;;;8.00;76.10;;;;;;5241168;27;20243;-74
2024/04/10 05:41:26;;;;;;;6.67;2.83;;;7.90;75.90;;;;;;5239177;27;20255;-74
2024/04/10 05:43:53;;;;;;;6.10;2.10;;;7.90;76.10;;;;;;5230899;27;20530;-74
2024/04/10 05:46:18;;;;;;;4.83;2.23;;;8.00;75.90;;;;;;5244803;27;20470;-74
2024/04/10 05:48:44;;;;;;;7.63;2.83;;;8.00;75.50;;;;;;5242137;27;20470;-75
2024/04/10 05:51:09;;;;;;;11.87;2.80;;;8.00;75.70;;;;;;5243646;27;20330;-75
2024/04/10 05:53:35;;;;;;;7.13;2.57;;;8.10;75.10;;;;;;5237123;27;20278;-75
2024/04/10 05:56:04;;;;;;;7.73;2.33;;;8.10;74.80;;;;;;5237965;27;20339;-74
2024/04/10 05:58:38;;;;;;;7.20;2.30;;;8.20;74.60;;;;;;5278000;27;20471;-73
2024/04/10 06:03:00;;;;;;;7.67;2.03;;;8.30;74.50;;;;;;5445772;25;20950;-73
2024/04/10 06:05:26;;;;;;;8.73;2.20;;;8.20;74.20;;;;;;5452299;26;20525;-74
2024/04/10 06:07:51;;;;;;;6.83;2.30;;;8.20;74.30;;;;;;5457663;26;20241;-73
2024/04/10 06:10:19;;;;;;;3.93;2.00;;;8.20;74.30;;;;;;5463989;26;20619;-73
2024/04/10 06:12:51;;;;;;;6.00;2.00;;;8.30;74.50;;;;;;5444837;26;20248;-73
2024/04/10 06:15:29;;;;;;;4.33;2.00;;;8.30;74.30;;;;;;5444548;26;20523;-75
2024/04/10 06:17:58;;;;;;;4.53;2.17;;;8.20;74.50;;;;;;5439281;26;20470;-75
2024/04/10 06:20:24;;;;;;;9.03;2.50;;;8.20;74.80;;;;;;5463136;26;20477;-74
2024/04/10 06:22:49;;;;;;;7.20;2.10;;;8.10;75.10;;;;;;5444957;26;20868;-75
2024/04/10 06:25:15;;;;;;;5.57;2.20;;;8.00;75.40;;;;;;5444751;26;20818;-73
2024/04/10 06:27:55;;;;;;;13.67;2.47;;;8.10;75.40;;;;;;5460999;26;20243;-75
2024/04/10 06:30:21;;;;;;;7.33;2.07;;;8.20;75.10;;;;;;5453373;26;20475;-76
2024/04/10 06:32:47;;;;;;;5.80;2.10;;;8.20;74.50;;;;;;5455579;26;20508;-75
2024/04/10 06:35:14;;;;;;;5.83;2.37;;;8.30;74.50;;;;;;5454531;26;21006;-75
2024/04/10 06:37:39;;;;;;;13.03;2.13;;;8.40;73.90;;;;;;5452168;26;20245;-76
2024/04/10 06:40:07;;;;;;;8.33;2.43;;;8.40;73.50;;;;;;5437289;26;20568;-77
2024/04/10 06:42:33;;;;;;;7.97;2.47;;;8.50;73.70;;;;;;5444905;26;20983;-76
2024/04/10 06:45:01;;;;;;;8.20;2.07;;;8.60;73.60;;;;;;5445352;26;20527;-76
2024/04/10 06:47:26;;;;;;;8.93;2.37;;;8.70;73.20;;;;;;5453455;26;20236;-76
2024/04/10 06:49:53;;;;;;;4.97;2.20;;;8.70;72.40;;;;;;5438778;26;20474;-77
2024/04/10 06:52:19;;;;;;;4.67;1.90;;;8.70;72.10;;;;;;5436321;26;20549;-76
2024/04/10 06:54:44;;;;;;;12.07;3.37;;;8.80;72.10;;;;;;5440771;26;20518;-77
2024/04/10 06:57:13;;;;;;;9.33;2.63;;;8.80;71.80;;;;;;5464525;26;20232;-76
2024/04/10 06:59:38;;;;;;;12.03;2.40;;;8.80;72.10;;;;;;5465644;26;20251;-76
2024/04/10 07:02:04;;;;;;;9.47;2.33;;;9.00;71.60;;;;;;5449239;26;20549;-76
2024/04/10 07:04:36;;;;;;;7.23;3.20;;;9.10;70.70;;;;;;5452386;26;20303;-76
2024/04/10 07:07:06;;;;;;;7.40;2.00;;;8.90;70.70;;;;;;5469645;26;20470;-75
2024/04/10 07:09:34;;;;;;;8.13;2.80;;;8.90;71.30;;;;;;5462355;26;20556;-75
2024/04/10 07:12:01;;;;;;;10.17;3.03;;;9.00;71.00;;;;;;5455324;26;20470;-74
2024/04/10 07:14:28;;;;;;;8.47;2.20;;;9.00;70.70;;;;;;5446814;26;20466;-76
2024/04/10 07:16:54;;;;;;;9.57;2.73;;;9.00;70.70;;;;;;5458783;26;20446;-76
2024/04/10 07:19:19;;;;;;;7.87;2.50;;;8.90;70.70;;;;;;5445559;26;20544;-75
2024/04/10 07:21:45;;;;;;;17.40;3.13;;;9.00;70.80;;;;;;5441517;26;20249;-76
2024/04/10 07:24:12;;;;;;;6.20;2.50;;;9.00;70.50;;;;;;5445961;26;20279;-77
2024/04/10 07:26:38;;;;;;;8.07;2.27;;;9.00;70.80;;;;;;5426664;26;20233;-76
2024/04/10 07:29:04;;;;;;;10.90;2.57;;;9.10;70.50;;;;;;5432684;26;20460;-76
2024/04/10 07:31:35;;;;;;;15.23;2.20;;;9.20;70.50;;;;;;5435310;26;20275;-76
2024/04/10 07:34:04;;;;;;;13.07;2.60;;;9.20;69.90;;;;;;5446337;26;20465;-77
2024/04/10 07:36:33;;;;;;;15.50;2.87;;;9.30;69.90;;;;;;5427331;26;20523;-75
2024/04/10 07:38:59;;;;;;;10.90;3.20;;;9.40;69.70;;;;;;5438952;26;20527;-76
2024/04/10 07:41:25;;;;;;;18.63;2.63;;;9.40;69.80;;;;;;5443789;26;20534;-76
2024/04/10 07:43:51;;;;;;;12.20;2.70;;;9.40;69.50;;;;;;5429236;26;20471;-78
2024/04/10 07:46:19;;;;;;;6.50;2.47;;;9.30;69.50;;;;;;5430795;26;20306;-77
2024/04/10 07:48:48;;;;;;;14.80;2.77;;;9.30;69.80;;;;;;5421373;26;20516;-77
2024/04/10 07:51:15;;;;;;;11.10;2.60;;;9.30;69.50;;;;;;5436706;26;20471;-77
2024/04/10 07:53:42;;;;;;;7.37;2.27;;;9.30;69.80;;;;;;5434443;26;20611;-77
2024/04/10 07:56:09;;;;;;;13.10;3.90;;;9.30;69.80;;;;;;5433710;26;20467;-75
2024/04/10 07:58:36;;;;;;;8.40;2.30;;;9.40;69.10;;;;;;5433792;26;20523;-77
2024/04/10 08:01:02;;;;;;;12.97;2.60;;;9.30;69.70;;;;;;5447197;26;20537;-76
2024/04/10 08:03:29;;;;;;;8.13;2.43;;;9.40;69.50;;;;;;5440233;26;20526;-77
2024/04/10 08:05:55;;;;;;;15.33;3.17;;;9.50;69.20;;;;;;5434373;26;20597;-78
2024/04/10 08:08:21;;;;;;;7.10;2.57;;;9.50;68.90;;;;;;5438548;26;20475;-76
2024/04/10 08:11:03;;;;;;;16.53;2.67;;;9.50;68.60;;;;;;5439883;26;20509;-75
2024/04/10 08:13:33;;;;;;;10.40;2.37;;;9.60;68.30;;;;;;5449245;26;20459;-76
2024/04/10 08:16:11;;;;;;;11.60;2.57;;;9.70;68.30;;;;;;5442829;26;20580;-76
2024/04/10 08:18:38;;;;;;;7.83;2.80;;;9.70;68.30;;;;;;5432905;26;20470;-76
2024/04/10 08:21:09;;;;;;;7.67;2.90;;;9.80;68.00;;;;;;5426570;26;20591;-74
2024/04/10 08:23:36;;;;;;;9.00;2.53;;;9.70;67.50;;;;;;5443630;26;20532;-77
2024/04/10 08:26:13;;;;;;;6.77;2.87;;;9.70;67.90;;;;;;5432419;26;20474;-78
2024/04/10 08:28:50;;;;;;;9.53;2.97;;;9.80;67.90;;;;;;5441227;26;20776;-78
2024/04/10 08:31:22;;;;;;;8.40;3.23;;;9.80;67.70;;;;;;5441083;26;20988;-76
2024/04/10 08:33:48;;;;;;;9.57;2.93;;;9.90;67.50;;;;;;5429252;26;20531;-77
2024/04/10 08:36:14;;;;;;;9.23;3.00;;;10.00;67.50;;;;;;5455044;26;20461;-76
2024/04/10 08:38:41;;;;;;;14.33;3.17;;;10.00;67.20;;;;;;5420824;26;20553;-76
2024/04/10 08:41:17;;;;;;;9.90;2.60;;;9.80;67.60;;;;;;5430837;26;20530;-76
2024/04/10 08:43:48;;;;;;;14.90;4.13;;;9.90;67.90;;;;;;5428035;26;20834;-76
2024/04/10 08:46:16;;;;;;;11.97;3.27;;;10.10;67.90;;;;;;5435640;26;20475;-77
2024/04/10 08:48:46;;;;;;;15.33;3.70;;;9.90;67.20;;;;;;5437417;26;21055;-76
2024/04/10 08:51:38;;;;;;;8.93;3.43;;;9.80;67.50;;;;;;5432952;26;20483;-75
2024/04/10 08:54:06;;;;;;;12.97;3.43;;;9.80;67.60;;;;;;5444154;26;20545;-77
2024/04/10 08:56:32;;;;;;;7.93;2.60;;;9.90;67.20;;;;;;5445404;26;20579;-77
2024/04/10 08:59:06;;;;;;;8.13;2.80;;;10.00;67.30;;;;;;5430572;26;21052;-76
2024/04/10 09:01:37;;;;;;;8.53;3.00;;;10.20;67.30;;;;;;5438619;26;20485;-77
2024/04/10 09:04:08;;;;;;;11.97;3.60;;;10.30;65.70;;;;;;5433940;26;20451;-76
2024/04/10 09:06:35;;;;;;;7.30;2.97;;;10.50;65.10;;;;;;5434310;26;20478;-76
2024/04/10 09:09:07;;;;;;;10.47;3.33;;;10.70;64.50;;;;;;5453467;26;20550;-76
2024/04/10 09:11:33;;;;;;;12.90;3.80;;;10.70;64.80;;;;;;5442733;26;20489;-77
2024/04/10 09:14:09;;;;;;;14.83;4.37;;;10.90;64.80;;;;;;5433856;26;20526;-77
2024/04/10 09:16:38;;;;;;;7.30;3.60;;;10.80;64.20;;;;;;5447682;26;20482;-77
2024/04/10 09:19:17;;;;;;;6.03;3.47;;;10.90;63.80;;;;;;5421238;26;20615;-76
2024/04/10 09:22:00;;;;;;;10.73;4.03;;;10.90;64.10;;;;;;5438721;26;20585;-76
2024/04/10 09:24:27;;;;;;;10.43;3.33;;;10.70;64.50;;;;;;5439885;26;20801;-77
2024/04/10 09:26:53;;;;;;;18.23;4.60;;;10.60;65.10;;;;;;5421475;26;20241;-77
2024/04/10 09:29:22;;;;;;;7.13;3.60;;;10.70;65.10;;;;;;5434551;26;20518;-77
2024/04/10 09:31:49;;;;;;;11.30;3.23;;;10.60;65.60;;;;;;5430462;26;20242;-76
2024/04/10 09:34:19;;;;;;;14.63;4.10;;;10.50;65.10;;;;;;5422594;26;20547;-76
2024/04/10 09:36:46;;;;;;;11.17;4.13;;;10.30;64.20;;;;;;5428736;26;20586;-76
2024/04/10 09:39:12;;;;;;;9.03;3.30;;;10.40;65.00;;;;;;5449484;26;20529;-76
2024/04/10 09:41:44;;;;;;;12.00;3.20;;;10.70;64.10;;;;;;5436795;26;20530;-76
2024/04/10 09:44:10;;;;;;;7.93;3.30;;;10.80;63.70;;;;;;5429198;26;20466;-76
2024/04/10 09:46:37;;;;;;;8.53;5.43;;;10.80;64.40;;;;;;5429365;26;20586;-76
2024/04/10 09:49:11;;;;;;;9.30;3.13;;;11.10;63.80;;;;;;5442735;26;20461;-77
2024/04/10 09:51:42;;;;;;;9.80;3.73;;;11.50;63.50;;;;;;5434285;26;20600;-77
2024/04/10 09:54:10;;;;;;;5.60;2.90;;;11.60;61.90;;;;;;5428583;26;20470;-79
2024/04/10 09:56:38;;;;;;;10.47;3.80;;;11.50;62.60;;;;;;5436744;26;20556;-77
2024/04/10 09:59:10;;;;;;;11.20;3.63;;;11.70;62.00;;;;;;5433049;26;20574;-76
2024/04/10 10:01:38;;;;;;;7.00;2.93;;;11.80;61.90;;;;;;5444201;26;20470;-77
2024/04/10 10:04:03;;;;;;;15.73;3.53;;;11.60;60.30;;;;;;5435417;26;20458;-77
2024/04/10 10:06:31;;;;;;;6.23;3.50;;;11.70;60.90;;;;;;5441771;26;20531;-77
2024/04/10 10:08:58;;;;;;;7.50;3.17;;;11.90;60.40;;;;;;5432797;26;20363;-78
2024/04/10 10:11:24;;;;;;;8.60;3.40;;;11.80;59.90;;;;;;5440801;26;20545;-76
2024/04/10 10:14:02;;;;;;;16.00;4.30;;;12.10;59.60;;;;;;5447084;26;20459;-75
2024/04/10 10:16:28;;;;;;;8.20;3.00;;;12.40;59.50;;;;;;5436299;26;20494;-75
2024/04/10 10:19:01;;;;;;;4.97;2.47;;;12.80;58.10;;;;;;5443194;26;20470;-75
2024/04/10 10:21:28;;;;;;;11.77;3.10;;;13.00;56.40;;;;;;5448851;26;20568;-76
2024/04/10 10:24:01;;;;;;;4.43;3.27;;;12.50;56.90;;;;;;5448325;26;20486;-75
2024/04/10 10:26:27;;;;;;;9.53;3.10;;;12.50;58.20;;;;;;5445286;26;21148;-77
2024/04/10 10:29:03;;;;;;;12.30;3.60;;;12.50;58.00;;;;;;5450562;26;20466;-76
2024/04/10 10:31:29;;;;;;;10.80;2.93;;;12.50;58.00;;;;;;5424209;26;20477;-78
2024/04/10 10:34:12;;;;;;;7.93;3.23;;;12.40;58.00;;;;;;5428368;26;20542;-76
2024/04/10 10:36:38;;;;;;;5.23;2.93;;;12.20;58.40;;;;;;5429681;26;20233;-77
2024/04/10 10:39:14;;;;;;;12.23;2.90;;;12.00;58.80;;;;;;5426144;26;20512;-75
2024/04/10 10:41:40;;;;;;;6.83;3.30;;;12.10;58.80;;;;;;5436067;26;20523;-76
2024/04/10 10:44:06;;;;;;;7.50;2.63;;;12.40;57.70;;;;;;5421743;26;20459;-75
2024/04/10 10:46:35;;;;;;;7.07;2.10;;;12.60;56.20;;;;;;5430442;26;20240;-76
2024/04/10 10:49:04;;;;;;;5.80;2.30;;;12.60;53.80;;;;;;5437348;26;20238;-76
2024/04/10 10:51:31;;;;;;;7.90;2.67;;;12.70;53.60;;;;;;5437584;26;20525;-76
2024/04/10 10:53:57;;;;;;;6.03;2.20;;;12.90;53.20;;;;;;5429290;26;20520;-77
2024/04/10 10:56:27;;;;;;;7.50;2.30;;;13.00;53.20;;;;;;5448422;26;20462;-77
2024/04/10 10:58:53;;;;;;;4.90;2.30;;;13.20;52.80;;;;;;5442895;26;20678;-76
2024/04/10 11:01:20;;;;;;;5.90;2.70;;;13.60;52.10;;;;;;5437352;26;20477;-76
2024/04/10 11:03:47;;;;;;;5.00;2.60;;;13.40;51.60;;;;;;5424225;26;20446;-77
2024/04/10 11:06:13;;;;;;;5.70;1.90;;;13.50;52.10;;;;;;5451453;26;20566;-77
2024/04/10 11:08:39;;;;;;;4.90;2.43;;;13.40;49.30;;;;;;5433834;26;21109;-76
2024/04/10 11:11:06;;;;;;;6.27;1.97;;;13.10;51.40;;;;;;5427140;26;20482;-75
2024/04/10 11:13:31;;;;;;;9.83;2.70;;;13.40;50.70;;;;;;5436036;26;20310;-76
2024/04/10 11:15:57;;;;;;;5.70;2.13;;;13.30;51.00;;;;;;5442000;26;20523;-77
2024/04/10 11:18:24;;;;;;;4.37;2.10;;;13.50;51.60;;;;;;5453909;26;20235;-75
2024/04/10 11:20:51;;;;;;;6.07;2.13;;;13.70;51.60;;;;;;5448708;26;20466;-78
2024/04/10 11:23:23;;;;;;;12.50;2.20;;;14.10;50.20;;;;;;5435690;26;20584;-76
2024/04/10 11:25:50;;;;;;;4.83;2.03;;;14.30;50.50;;;;;;5446324;26;20466;-77
2024/04/10 11:28:16;;;;;;;2.80;1.97;;;14.20;48.10;;;;;;5436152;26;20590;-75
2024/04/10 11:30:42;;;;;;;4.20;1.73;;;14.10;48.70;;;;;;5447959;26;20535;-76
2024/04/10 11:33:08;;;;;;;5.90;2.23;;;14.50;49.40;;;;;;5441338;26;20467;-78
2024/04/10 11:35:37;;;;;;;9.13;2.20;;;14.90;48.50;;;;;;5445953;26;20530;-77
2024/04/10 11:38:03;;;;;;;6.13;2.30;;;15.00;47.10;;;;;;5440413;26;20460;-76
2024/04/10 11:40:28;;;;;;;9.57;2.17;;;14.10;48.10;;;;;;5438694;26;20459;-75
2024/04/10 11:42:54;;;;;;;4.47;1.87;;;13.70;48.60;;;;;;5430332;26;20541;-75
2024/04/10 11:45:20;;;;;;;6.37;2.53;;;13.10;49.70;;;;;;5436833;26;20245;-77
2024/04/10 11:47:48;;;;;;;4.37;2.30;;;12.90;50.50;;;;;;5442338;26;20240;-78
2024/04/10 11:50:17;;;;;;;5.63;1.93;;;13.10;51.30;;;;;;5449240;26;20254;-77
2024/04/10 11:52:45;;;;;;;6.87;2.00;;;13.60;50.70;;;;;;5440821;26;20770;-77
2024/04/10 11:55:12;;;;;;;7.80;2.30;;;13.80;50.20;;;;;;5440336;26;20877;-75
2024/04/10 11:57:38;;;;;;;2.97;1.57;;;14.00;49.90;;;;;;5429091;26;20520;-75
2024/04/10 12:00:06;;;;;;;5.80;2.03;;;14.10;47.80;;;;;;5429939;26;20465;-76
2024/04/10 12:02:32;;;;;;;6.57;1.90;;;14.10;47.50;;;;;;5443981;26;20283;-75
2024/04/10 12:04:58;;;;;;;7.70;1.90;;;14.00;47.50;;;;;;5432023;26;20512;-76
2024/04/10 12:07:23;;;;;;;5.67;2.17;;;14.20;47.50;;;;;;5452796;26;20248;-76
2024/04/10 12:09:49;;;;;;;3.77;1.73;;;14.70;46.50;;;;;;5437689;26;20238;-76
2024/04/10 12:12:15;;;;;;;4.70;1.80;;;15.10;44.30;;;;;;5445650;26;20244;-75
2024/04/10 12:14:44;;;;;;;7.80;2.13;;;15.50;43.00;;;;;;5430961;26;20648;-75
2024/04/10 12:17:10;;;;;;;11.27;1.97;;;15.90;43.00;;;;;;5435208;26;20467;-76
2024/04/10 12:19:36;;;;;;;6.27;2.10;;;16.20;42.40;;;;;;5437520;26;20466;-77
2024/04/10 12:22:02;;;;;;;6.53;2.30;;;16.30;42.30;;;;;;5431611;26;20493;-76
2024/04/10 12:24:28;;;;;;;5.37;2.17;;;15.60;41.50;;;;;;5425592;26;20267;-75
2024/04/10 12:26:55;;;;;;;4.77;1.80;;;15.30;42.30;;;;;;5436378;26;20241;-77
2024/04/10 12:29:21;;;;;;;3.97;2.13;;;15.50;42.60;;;;;;5439868;26;20478;-75
2024/04/10 12:31:47;;;;;;;5.13;2.10;;;15.60;41.40;;;;;;5439290;26;20465;-75
2024/04/10 12:34:12;;;;;;;4.67;2.10;;;15.30;42.00;;;;;;5438633;26;20237;-76
2024/04/10 12:39:22;;;;;;;8.60;2.63;;;14.90;43.40;;;;;;5443807;26;20257;-77
2024/04/10 12:41:51;;;;;;;6.53;2.63;;;15.20;43.50;;;;;;5443002;26;21027;-77
2024/04/10 12:44:21;;;;;;;7.43;2.67;;;15.00;45.70;;;;;;5442678;26;20245;-76
2024/04/10 12:46:51;;;;;;;6.80;2.80;;;14.80;47.50;;;;;;5428481;26;20458;-77
2024/04/10 12:49:17;;;;;;;7.00;2.60;;;14.40;46.70;;;;;;5418181;26;20513;-75
2024/04/10 12:51:44;;;;;;;3.70;2.33;;;14.60;47.80;;;;;;5428182;26;20483;-76
2024/04/10 12:54:10;;;;;;;4.97;2.30;;;15.30;46.20;;;;;;5438439;26;20476;-76
2024/04/10 12:56:35;;;;;;;6.60;2.60;;;15.70;45.00;;;;;;5441455;26;20468;-75
2024/04/10 12:59:01;;;;;;;4.30;2.60;;;16.10;43.40;;;;;;5433426;26;20462;-77
2024/04/10 13:01:27;;;;;;;2.80;2.20;;;16.50;42.00;;;;;;5446226;26;20251;-76